sensor_id;sensor_type;location;lat;lon;timestamp;temperature;humidity
82243;DHT22;71844;51.528;4.442;2023-09-12T00:01:05;20.70;75.40
82243;DHT22;71844;51.528;4.442;2023-09-12T00:03:33;20.70;75.30
82243;DHT22;71844;51.528;4.442;2023-09-12T00:06:02;20.70;75.40
82243;DHT22;71844;51.528;4.442;2023-09-12T00:08:29;20.60;75.40
82243;DHT22;71844;51.528;4.442;2023-09-12T00:11:09;20.60;75.50
82243;DHT22;71844;51.528;4.442;2023-09-12T00:13:39;20.60;75.40
82243;DHT22;71844;51.528;4.442;2023-09-12T00:16:08;20.60;75.30
82243;DHT22;71844;51.528;4.442;2023-09-12T00:18:39;20.60;75.50
82243;DHT22;71844;51.528;4.442;2023-09-12T00:21:07;20.50;75.50
82243;DHT22;71844;51.528;4.442;2023-09-12T00:23:34;20.50;75.60
82243;DHT22;71844;51.528;4.442;2023-09-12T00:26:01;20.50;75.40
82243;DHT22;71844;51.528;4.442;2023-09-12T00:28:28;20.40;75.50
82243;DHT22;71844;51.528;4.442;2023-09-12T00:30:55;20.40;75.60
82243;DHT22;71844;51.528;4.442;2023-09-12T00:33:22;20.30;75.70
82243;DHT22;71844;51.528;4.442;2023-09-12T00:35:49;20.30;75.80
82243;DHT22;71844;51.528;4.442;2023-09-12T00:38:16;20.30;76.20
82243;DHT22;71844;51.528;4.442;2023-09-12T00:40:44;20.30;76.30
82243;DHT22;71844;51.528;4.442;2023-09-12T00:43:11;20.20;76.30
82243;DHT22;71844;51.528;4.442;2023-09-12T00:45:38;20.20;76.20
82243;DHT22;71844;51.528;4.442;2023-09-12T00:48:07;20.20;76.30
82243;DHT22;71844;51.528;4.442;2023-09-12T00:50:39;20.20;76.20
82243;DHT22;71844;51.528;4.442;2023-09-12T00:53:09;20.20;76.30
82243;DHT22;71844;51.528;4.442;2023-09-12T00:55:38;20.20;76.50
82243;DHT22;71844;51.528;4.442;2023-09-12T00:58:06;20.20;76.40
82243;DHT22;71844;51.528;4.442;2023-09-12T01:00:36;20.20;76.40
82243;DHT22;71844;51.528;4.442;2023-09-12T01:03:03;20.20;76.50
82243;DHT22;71844;51.528;4.442;2023-09-12T01:05:31;20.20;76.60
82243;DHT22;71844;51.528;4.442;2023-09-12T01:08:01;20.20;76.80
82243;DHT22;71844;51.528;4.442;2023-09-12T01:10:29;20.30;76.90
82243;DHT22;71844;51.528;4.442;2023-09-12T01:12:56;20.30;77.00
82243;DHT22;71844;51.528;4.442;2023-09-12T01:15:26;20.40;77.10
82243;DHT22;71844;51.528;4.442;2023-09-12T01:17:53;20.40;77.10
82243;DHT22;71844;51.528;4.442;2023-09-12T01:20:32;20.50;77.20
82243;DHT22;71844;51.528;4.442;2023-09-12T01:23:05;20.50;76.90
82243;DHT22;71844;51.528;4.442;2023-09-12T01:28:23;20.50;76.90
82243;DHT22;71844;51.528;4.442;2023-09-12T01:30:52;20.50;76.90
82243;DHT22;71844;51.528;4.442;2023-09-12T01:33:20;20.50;77.00
82243;DHT22;71844;51.528;4.442;2023-09-12T01:35:47;20.60;77.10
82243;DHT22;71844;51.528;4.442;2023-09-12T01:38:14;20.60;77.10
82243;DHT22;71844;51.528;4.442;2023-09-12T01:40:51;20.60;77.10
82243;DHT22;71844;51.528;4.442;2023-09-12T01:43:21;20.60;76.80
82243;DHT22;71844;51.528;4.442;2023-09-12T01:45:52;20.60;76.60
82243;DHT22;71844;51.528;4.442;2023-09-12T01:48:22;20.60;76.60
82243;DHT22;71844;51.528;4.442;2023-09-12T01:50:50;20.60;76.70
82243;DHT22;71844;51.528;4.442;2023-09-12T01:53:18;20.60;76.80
82243;DHT22;71844;51.528;4.442;2023-09-12T01:55:46;20.60;76.90
82243;DHT22;71844;51.528;4.442;2023-09-12T01:58:14;20.70;76.80
82243;DHT22;71844;51.528;4.442;2023-09-12T02:00:41;20.70;76.70
82243;DHT22;71844;51.528;4.442;2023-09-12T02:03:08;20.70;76.80
82243;DHT22;71844;51.528;4.442;2023-09-12T02:05:35;20.70;76.60
82243;DHT22;71844;51.528;4.442;2023-09-12T02:08:04;20.70;76.40
82243;DHT22;71844;51.528;4.442;2023-09-12T02:10:31;20.60;76.50
82243;DHT22;71844;51.528;4.442;2023-09-12T02:12:59;20.60;76.40
82243;DHT22;71844;51.528;4.442;2023-09-12T02:15:26;20.60;76.60
82243;DHT22;71844;51.528;4.442;2023-09-12T02:17:52;20.50;76.60
82243;DHT22;71844;51.528;4.442;2023-09-12T02:20:19;20.50;76.70
82243;DHT22;71844;51.528;4.442;2023-09-12T02:22:47;20.50;76.70
82243;DHT22;71844;51.528;4.442;2023-09-12T02:25:14;20.50;76.90
82243;DHT22;71844;51.528;4.442;2023-09-12T02:27:41;20.50;76.70
82243;DHT22;71844;51.528;4.442;2023-09-12T02:30:08;20.50;76.80
82243;DHT22;71844;51.528;4.442;2023-09-12T02:32:36;20.50;76.90
82243;DHT22;71844;51.528;4.442;2023-09-12T02:35:03;20.50;76.90
82243;DHT22;71844;51.528;4.442;2023-09-12T02:37:30;20.50;77.00
82243;DHT22;71844;51.528;4.442;2023-09-12T02:39:56;20.50;76.90
82243;DHT22;71844;51.528;4.442;2023-09-12T02:42:23;20.50;76.90
82243;DHT22;71844;51.528;4.442;2023-09-12T02:44:51;20.40;76.90
82243;DHT22;71844;51.528;4.442;2023-09-12T02:47:19;20.40;77.00
82243;DHT22;71844;51.528;4.442;2023-09-12T02:49:46;20.40;77.00
82243;DHT22;71844;51.528;4.442;2023-09-12T02:52:15;20.40;77.10
82243;DHT22;71844;51.528;4.442;2023-09-12T02:54:42;20.30;77.20
82243;DHT22;71844;51.528;4.442;2023-09-12T02:57:09;20.30;78.20
82243;DHT22;71844;51.528;4.442;2023-09-12T02:59:36;20.30;77.10
82243;DHT22;71844;51.528;4.442;2023-09-12T03:02:03;20.30;77.20
82243;DHT22;71844;51.528;4.442;2023-09-12T03:04:34;20.20;77.30
82243;DHT22;71844;51.528;4.442;2023-09-12T03:07:01;20.20;77.40
82243;DHT22;71844;51.528;4.442;2023-09-12T03:09:31;20.20;77.60
82243;DHT22;71844;51.528;4.442;2023-09-12T03:12:02;20.20;77.70
82243;DHT22;71844;51.528;4.442;2023-09-12T03:14:30;20.20;77.70
82243;DHT22;71844;51.528;4.442;2023-09-12T03:16:57;20.20;77.80
82243;DHT22;71844;51.528;4.442;2023-09-12T03:19:24;20.20;77.90
82243;DHT22;71844;51.528;4.442;2023-09-12T03:21:51;20.20;78.00
82243;DHT22;71844;51.528;4.442;2023-09-12T03:24:17;20.20;78.10
82243;DHT22;71844;51.528;4.442;2023-09-12T03:26:45;20.20;78.10
82243;DHT22;71844;51.528;4.442;2023-09-12T03:29:12;20.30;78.10
82243;DHT22;71844;51.528;4.442;2023-09-12T03:31:38;20.30;78.00
82243;DHT22;71844;51.528;4.442;2023-09-12T03:34:05;20.30;78.00
82243;DHT22;71844;51.528;4.442;2023-09-12T03:36:32;20.30;78.00
82243;DHT22;71844;51.528;4.442;2023-09-12T03:38:59;20.30;77.90
82243;DHT22;71844;51.528;4.442;2023-09-12T03:41:26;20.30;77.90
82243;DHT22;71844;51.528;4.442;2023-09-12T03:43:53;20.20;78.00
82243;DHT22;71844;51.528;4.442;2023-09-12T03:46:21;20.20;78.10
82243;DHT22;71844;51.528;4.442;2023-09-12T03:48:48;20.20;78.10
82243;DHT22;71844;51.528;4.442;2023-09-12T03:51:15;20.20;78.10
82243;DHT22;71844;51.528;4.442;2023-09-12T03:53:42;20.20;78.30
82243;DHT22;71844;51.528;4.442;2023-09-12T03:56:09;20.20;78.20
82243;DHT22;71844;51.528;4.442;2023-09-12T03:58:40;20.20;78.30
82243;DHT22;71844;51.528;4.442;2023-09-12T04:01:08;20.20;78.40
82243;DHT22;71844;51.528;4.442;2023-09-12T04:03:34;20.20;78.40
82243;DHT22;71844;51.528;4.442;2023-09-12T04:06:01;20.10;78.50
82243;DHT22;71844;51.528;4.442;2023-09-12T04:08:28;20.20;78.50
82243;DHT22;71844;51.528;4.442;2023-09-12T04:10:55;20.10;78.50
82243;DHT22;71844;51.528;4.442;2023-09-12T04:13:22;20.10;78.50
82243;DHT22;71844;51.528;4.442;2023-09-12T04:15:49;20.10;78.60
82243;DHT22;71844;51.528;4.442;2023-09-12T04:18:16;20.10;78.60
82243;DHT22;71844;51.528;4.442;2023-09-12T04:20:43;20.10;78.60
82243;DHT22;71844;51.528;4.442;2023-09-12T04:23:10;20.00;78.60
82243;DHT22;71844;51.528;4.442;2023-09-12T04:25:37;20.00;78.70
82243;DHT22;71844;51.528;4.442;2023-09-12T04:28:04;20.00;78.80
82243;DHT22;71844;51.528;4.442;2023-09-12T04:30:31;20.00;78.80
82243;DHT22;71844;51.528;4.442;2023-09-12T04:32:57;19.90;78.80
82243;DHT22;71844;51.528;4.442;2023-09-12T04:35:24;19.90;78.90
82243;DHT22;71844;51.528;4.442;2023-09-12T04:37:51;19.90;78.90
82243;DHT22;71844;51.528;4.442;2023-09-12T04:40:18;19.90;79.10
82243;DHT22;71844;51.528;4.442;2023-09-12T04:42:45;19.90;79.10
82243;DHT22;71844;51.528;4.442;2023-09-12T04:45:12;19.80;79.20
82243;DHT22;71844;51.528;4.442;2023-09-12T04:47:39;19.80;79.30
82243;DHT22;71844;51.528;4.442;2023-09-12T04:50:06;19.80;79.30
82243;DHT22;71844;51.528;4.442;2023-09-12T04:52:33;19.80;79.30
82243;DHT22;71844;51.528;4.442;2023-09-12T04:55:01;19.80;79.50
82243;DHT22;71844;51.528;4.442;2023-09-12T04:57:28;19.80;79.50
82243;DHT22;71844;51.528;4.442;2023-09-12T04:59:58;19.80;79.60
82243;DHT22;71844;51.528;4.442;2023-09-12T05:02:25;19.80;79.60
82243;DHT22;71844;51.528;4.442;2023-09-12T05:04:52;19.80;79.50
82243;DHT22;71844;51.528;4.442;2023-09-12T05:07:20;19.80;79.50
82243;DHT22;71844;51.528;4.442;2023-09-12T05:09:46;19.80;79.60
82243;DHT22;71844;51.528;4.442;2023-09-12T05:12:13;19.80;79.50
82243;DHT22;71844;51.528;4.442;2023-09-12T05:14:40;19.70;79.70
82243;DHT22;71844;51.528;4.442;2023-09-12T05:17:07;19.70;79.80
82243;DHT22;71844;51.528;4.442;2023-09-12T05:19:34;19.70;79.90
82243;DHT22;71844;51.528;4.442;2023-09-12T05:22:01;19.70;79.90
82243;DHT22;71844;51.528;4.442;2023-09-12T05:24:28;19.70;80.00
82243;DHT22;71844;51.528;4.442;2023-09-12T05:26:55;19.70;80.00
82243;DHT22;71844;51.528;4.442;2023-09-12T05:29:22;19.70;80.00
82243;DHT22;71844;51.528;4.442;2023-09-12T05:31:49;19.80;80.10
82243;DHT22;71844;51.528;4.442;2023-09-12T05:34:16;19.70;80.00
82243;DHT22;71844;51.528;4.442;2023-09-12T05:36:43;19.70;80.10
82243;DHT22;71844;51.528;4.442;2023-09-12T05:39:10;19.70;80.10
82243;DHT22;71844;51.528;4.442;2023-09-12T05:41:37;19.70;80.20
82243;DHT22;71844;51.528;4.442;2023-09-12T05:44:04;19.70;80.10
82243;DHT22;71844;51.528;4.442;2023-09-12T05:46:31;19.80;80.10
82243;DHT22;71844;51.528;4.442;2023-09-12T05:48:58;19.80;79.90
82243;DHT22;71844;51.528;4.442;2023-09-12T05:51:25;19.80;79.90
82243;DHT22;71844;51.528;4.442;2023-09-12T05:53:52;19.70;79.90
82243;DHT22;71844;51.528;4.442;2023-09-12T05:56:19;19.70;80.00
82243;DHT22;71844;51.528;4.442;2023-09-12T05:58:47;19.70;80.10
82243;DHT22;71844;51.528;4.442;2023-09-12T06:01:14;19.60;80.10
82243;DHT22;71844;51.528;4.442;2023-09-12T06:03:41;19.60;80.20
82243;DHT22;71844;51.528;4.442;2023-09-12T06:06:08;19.60;80.10
82243;DHT22;71844;51.528;4.442;2023-09-12T06:08:35;19.50;80.40
82243;DHT22;71844;51.528;4.442;2023-09-12T06:11:02;19.50;80.50
82243;DHT22;71844;51.528;4.442;2023-09-12T06:13:28;19.40;80.70
82243;DHT22;71844;51.528;4.442;2023-09-12T06:15:55;19.40;80.70
82243;DHT22;71844;51.528;4.442;2023-09-12T06:18:22;19.40;80.90
82243;DHT22;71844;51.528;4.442;2023-09-12T06:20:50;19.40;81.00
82243;DHT22;71844;51.528;4.442;2023-09-12T06:23:18;19.40;81.00
82243;DHT22;71844;51.528;4.442;2023-09-12T06:25:45;19.50;81.10
82243;DHT22;71844;51.528;4.442;2023-09-12T06:28:12;19.50;81.10
82243;DHT22;71844;51.528;4.442;2023-09-12T06:30:52;19.50;81.20
82243;DHT22;71844;51.528;4.442;2023-09-12T06:33:20;19.60;81.10
82243;DHT22;71844;51.528;4.442;2023-09-12T06:35:50;19.60;81.10
82243;DHT22;71844;51.528;4.442;2023-09-12T06:38:22;19.60;81.10
82243;DHT22;71844;51.528;4.442;2023-09-12T06:40:49;19.70;81.10
82243;DHT22;71844;51.528;4.442;2023-09-12T06:43:16;19.70;81.20
82243;DHT22;71844;51.528;4.442;2023-09-12T06:45:43;19.80;81.20
82243;DHT22;71844;51.528;4.442;2023-09-12T06:48:10;19.90;81.20
82243;DHT22;71844;51.528;4.442;2023-09-12T06:50:37;19.90;81.00
82243;DHT22;71844;51.528;4.442;2023-09-12T06:53:05;19.90;81.00
82243;DHT22;71844;51.528;4.442;2023-09-12T06:55:34;20.00;81.20
82243;DHT22;71844;51.528;4.442;2023-09-12T06:58:01;20.00;81.30
82243;DHT22;71844;51.528;4.442;2023-09-12T07:00:28;20.10;81.40
82243;DHT22;71844;51.528;4.442;2023-09-12T07:02:55;20.20;81.20
82243;DHT22;71844;51.528;4.442;2023-09-12T07:05:22;20.30;81.00
82243;DHT22;71844;51.528;4.442;2023-09-12T07:07:49;20.30;80.80
82243;DHT22;71844;51.528;4.442;2023-09-12T07:10:16;20.30;80.80
82243;DHT22;71844;51.528;4.442;2023-09-12T07:12:52;20.40;80.90
82243;DHT22;71844;51.528;4.442;2023-09-12T07:15:19;20.40;80.80
82243;DHT22;71844;51.528;4.442;2023-09-12T07:17:46;20.40;80.80
82243;DHT22;71844;51.528;4.442;2023-09-12T07:20:14;20.40;80.90
82243;DHT22;71844;51.528;4.442;2023-09-12T07:22:42;20.40;80.80
82243;DHT22;71844;51.528;4.442;2023-09-12T07:25:09;20.50;81.00
82243;DHT22;71844;51.528;4.442;2023-09-12T07:27:39;20.60;80.90
82243;DHT22;71844;51.528;4.442;2023-09-12T07:30:07;20.60;80.70
82243;DHT22;71844;51.528;4.442;2023-09-12T07:32:34;20.70;80.60
82243;DHT22;71844;51.528;4.442;2023-09-12T07:35:01;20.70;80.60
82243;DHT22;71844;51.528;4.442;2023-09-12T07:37:28;20.70;80.40
82243;DHT22;71844;51.528;4.442;2023-09-12T07:39:55;20.70;80.40
82243;DHT22;71844;51.528;4.442;2023-09-12T07:42:23;20.80;80.30
82243;DHT22;71844;51.528;4.442;2023-09-12T07:44:51;20.80;80.00
82243;DHT22;71844;51.528;4.442;2023-09-12T07:47:18;20.80;80.00
82243;DHT22;71844;51.528;4.442;2023-09-12T07:49:45;20.70;80.00
82243;DHT22;71844;51.528;4.442;2023-09-12T07:52:12;20.70;80.00
82243;DHT22;71844;51.528;4.442;2023-09-12T07:54:39;20.70;80.00
82243;DHT22;71844;51.528;4.442;2023-09-12T07:57:06;20.70;80.00
82243;DHT22;71844;51.528;4.442;2023-09-12T07:59:33;20.80;80.20
82243;DHT22;71844;51.528;4.442;2023-09-12T08:02:00;20.90;80.00
82243;DHT22;71844;51.528;4.442;2023-09-12T08:04:27;20.90;79.70
82243;DHT22;71844;51.528;4.442;2023-09-12T08:06:54;20.90;79.40
82243;DHT22;71844;51.528;4.442;2023-09-12T08:09:48;20.90;79.50
82243;DHT22;71844;51.528;4.442;2023-09-12T08:12:16;20.90;79.30
82243;DHT22;71844;51.528;4.442;2023-09-12T08:14:43;20.90;79.30
82243;DHT22;71844;51.528;4.442;2023-09-12T08:17:12;20.90;79.20
82243;DHT22;71844;51.528;4.442;2023-09-12T08:19:39;20.90;79.30
82243;DHT22;71844;51.528;4.442;2023-09-12T08:22:08;21.10;79.20
82243;DHT22;71844;51.528;4.442;2023-09-12T08:24:35;21.10;78.70
82243;DHT22;71844;51.528;4.442;2023-09-12T08:27:06;21.20;78.50
82243;DHT22;71844;51.528;4.442;2023-09-12T08:29:37;21.20;78.40
82243;DHT22;71844;51.528;4.442;2023-09-12T08:32:05;21.30;78.20
82243;DHT22;71844;51.528;4.442;2023-09-12T08:34:32;21.40;78.00
82243;DHT22;71844;51.528;4.442;2023-09-12T08:36:59;21.50;77.50
82243;DHT22;71844;51.528;4.442;2023-09-12T08:39:27;21.60;77.00
82243;DHT22;71844;51.528;4.442;2023-09-12T08:41:54;21.80;76.80
82243;DHT22;71844;51.528;4.442;2023-09-12T08:44:22;22.00;76.60
82243;DHT22;71844;51.528;4.442;2023-09-12T08:46:49;22.20;76.20
82243;DHT22;71844;51.528;4.442;2023-09-12T08:49:16;22.30;75.60
82243;DHT22;71844;51.528;4.442;2023-09-12T08:51:43;22.40;75.30
82243;DHT22;71844;51.528;4.442;2023-09-12T08:54:11;22.60;75.20
82243;DHT22;71844;51.528;4.442;2023-09-12T08:56:40;22.80;74.90
82243;DHT22;71844;51.528;4.442;2023-09-12T08:59:11;23.00;74.30
82243;DHT22;71844;51.528;4.442;2023-09-12T09:01:39;23.00;73.70
82243;DHT22;71844;51.528;4.442;2023-09-12T09:04:06;23.10;73.50
82243;DHT22;71844;51.528;4.442;2023-09-12T09:06:34;23.20;73.20
82243;DHT22;71844;51.528;4.442;2023-09-12T09:09:05;23.20;72.80
82243;DHT22;71844;51.528;4.442;2023-09-12T09:11:34;23.20;72.80
82243;DHT22;71844;51.528;4.442;2023-09-12T09:14:02;23.40;73.30
82243;DHT22;71844;51.528;4.442;2023-09-12T09:16:30;23.80;72.80
82243;DHT22;71844;51.528;4.442;2023-09-12T09:19:02;24.20;71.70
82243;DHT22;71844;51.528;4.442;2023-09-12T09:21:33;24.40;70.90
82243;DHT22;71844;51.528;4.442;2023-09-12T09:24:05;24.80;70.50
82243;DHT22;71844;51.528;4.442;2023-09-12T09:26:49;25.30;69.70
82243;DHT22;71844;51.528;4.442;2023-09-12T09:29:27;25.80;66.60
82243;DHT22;71844;51.528;4.442;2023-09-12T09:32:00;26.10;67.30
82243;DHT22;71844;51.528;4.442;2023-09-12T09:34:27;26.60;66.20
82243;DHT22;71844;51.528;4.442;2023-09-12T09:36:56;26.90;64.90
82243;DHT22;71844;51.528;4.442;2023-09-12T09:39:25;27.20;63.50
82243;DHT22;71844;51.528;4.442;2023-09-12T09:41:55;27.40;63.20
82243;DHT22;71844;51.528;4.442;2023-09-12T09:44:27;27.70;61.90
82243;DHT22;71844;51.528;4.442;2023-09-12T09:46:58;28.00;61.20
82243;DHT22;71844;51.528;4.442;2023-09-12T09:49:27;28.40;60.00
82243;DHT22;71844;51.528;4.442;2023-09-12T09:51:55;28.80;58.90
82243;DHT22;71844;51.528;4.442;2023-09-12T09:54:24;29.20;57.40
82243;DHT22;71844;51.528;4.442;2023-09-12T09:56:56;29.40;56.20
82243;DHT22;71844;51.528;4.442;2023-09-12T09:59:25;29.60;55.40
82243;DHT22;71844;51.528;4.442;2023-09-12T10:01:57;29.90;54.60
82243;DHT22;71844;51.528;4.442;2023-09-12T10:04:27;30.00;53.50
82243;DHT22;71844;51.528;4.442;2023-09-12T10:06:58;30.00;53.30
82243;DHT22;71844;51.528;4.442;2023-09-12T10:09:26;30.20;53.00
82243;DHT22;71844;51.528;4.442;2023-09-12T10:11:55;30.40;52.50
82243;DHT22;71844;51.528;4.442;2023-09-12T10:14:24;30.60;51.70
82243;DHT22;71844;51.528;4.442;2023-09-12T10:17:00;30.90;51.20
82243;DHT22;71844;51.528;4.442;2023-09-12T10:19:38;31.10;50.10
82243;DHT22;71844;51.528;4.442;2023-09-12T10:22:21;31.20;49.80
82243;DHT22;71844;51.528;4.442;2023-09-12T10:24:50;31.20;48.70
82243;DHT22;71844;51.528;4.442;2023-09-12T10:27:20;31.20;49.30
82243;DHT22;71844;51.528;4.442;2023-09-12T10:29:49;31.20;48.90
82243;DHT22;71844;51.528;4.442;2023-09-12T10:32:19;31.00;48.90
82243;DHT22;71844;51.528;4.442;2023-09-12T10:34:48;30.80;48.50
82243;DHT22;71844;51.528;4.442;2023-09-12T10:37:16;30.60;48.50
82243;DHT22;71844;51.528;4.442;2023-09-12T10:39:44;30.40;48.50
82243;DHT22;71844;51.528;4.442;2023-09-12T10:42:13;30.60;48.50
82243;DHT22;71844;51.528;4.442;2023-09-12T10:44:40;30.80;47.90
82243;DHT22;71844;51.528;4.442;2023-09-12T10:47:07;31.00;47.70
82243;DHT22;71844;51.528;4.442;2023-09-12T10:49:35;31.00;47.60
82243;DHT22;71844;51.528;4.442;2023-09-12T10:52:03;30.90;47.80
82243;DHT22;71844;51.528;4.442;2023-09-12T10:57:18;30.90;48.40
82243;DHT22;71844;51.528;4.442;2023-09-12T11:02:38;30.90;48.10
82243;DHT22;71844;51.528;4.442;2023-09-12T11:05:07;30.90;48.20
82243;DHT22;71844;51.528;4.442;2023-09-12T11:07:58;31.20;48.00
82243;DHT22;71844;51.528;4.442;2023-09-12T11:10:26;31.60;47.50
82243;DHT22;71844;51.528;4.442;2023-09-12T11:12:54;31.90;47.20
82243;DHT22;71844;51.528;4.442;2023-09-12T11:15:25;32.10;46.70
82243;DHT22;71844;51.528;4.442;2023-09-12T11:18:05;32.20;46.10
82243;DHT22;71844;51.528;4.442;2023-09-12T11:20:49;32.10;44.70
82243;DHT22;71844;51.528;4.442;2023-09-12T11:23:17;32.10;44.90
82243;DHT22;71844;51.528;4.442;2023-09-12T11:25:45;32.20;45.80
82243;DHT22;71844;51.528;4.442;2023-09-12T11:28:12;32.30;45.70
82243;DHT22;71844;51.528;4.442;2023-09-12T11:30:55;32.50;45.60
82243;DHT22;71844;51.528;4.442;2023-09-12T11:33:24;32.60;44.70
82243;DHT22;71844;51.528;4.442;2023-09-12T11:35:53;32.40;45.30
82243;DHT22;71844;51.528;4.442;2023-09-12T11:38:28;32.30;45.20
82243;DHT22;71844;51.528;4.442;2023-09-12T11:41:08;32.20;44.50
82243;DHT22;71844;51.528;4.442;2023-09-12T11:43:37;32.30;45.30
82243;DHT22;71844;51.528;4.442;2023-09-12T11:46:06;32.40;45.10
82243;DHT22;71844;51.528;4.442;2023-09-12T11:48:33;32.60;44.70
82243;DHT22;71844;51.528;4.442;2023-09-12T11:51:00;32.70;44.60
82243;DHT22;71844;51.528;4.442;2023-09-12T11:53:28;32.70;44.60
82243;DHT22;71844;51.528;4.442;2023-09-12T11:55:59;32.70;44.50
82243;DHT22;71844;51.528;4.442;2023-09-12T11:58:27;32.60;44.40
82243;DHT22;71844;51.528;4.442;2023-09-12T12:00:56;32.60;44.30
82243;DHT22;71844;51.528;4.442;2023-09-12T12:03:25;32.60;44.30
82243;DHT22;71844;51.528;4.442;2023-09-12T12:05:54;32.70;44.30
82243;DHT22;71844;51.528;4.442;2023-09-12T12:08:22;32.80;44.10
82243;DHT22;71844;51.528;4.442;2023-09-12T12:10:58;33.00;43.70
82243;DHT22;71844;51.528;4.442;2023-09-12T12:13:26;33.10;43.50
82243;DHT22;71844;51.528;4.442;2023-09-12T12:15:55;33.20;43.30
82243;DHT22;71844;51.528;4.442;2023-09-12T12:18:24;33.30;43.20
82243;DHT22;71844;51.528;4.442;2023-09-12T12:20:51;33.50;43.10
82243;DHT22;71844;51.528;4.442;2023-09-12T12:23:18;33.50;42.90
82243;DHT22;71844;51.528;4.442;2023-09-12T12:25:45;33.60;42.80
82243;DHT22;71844;51.528;4.442;2023-09-12T12:28:12;33.80;42.30
82243;DHT22;71844;51.528;4.442;2023-09-12T12:30:39;33.90;42.10
82243;DHT22;71844;51.528;4.442;2023-09-12T12:33:08;33.90;41.70
82243;DHT22;71844;51.528;4.442;2023-09-12T12:36:05;33.80;41.80
82243;DHT22;71844;51.528;4.442;2023-09-12T12:38:37;33.70;40.90
82243;DHT22;71844;51.528;4.442;2023-09-12T12:41:26;33.50;41.80
82243;DHT22;71844;51.528;4.442;2023-09-12T12:44:05;33.50;41.30
82243;DHT22;71844;51.528;4.442;2023-09-12T12:46:33;33.50;41.90
82243;DHT22;71844;51.528;4.442;2023-09-12T12:49:00;33.40;41.80
82243;DHT22;71844;51.528;4.442;2023-09-12T12:51:27;33.10;41.90
82243;DHT22;71844;51.528;4.442;2023-09-12T12:54:04;32.70;42.50
82243;DHT22;71844;51.528;4.442;2023-09-12T12:56:33;32.70;42.40
82243;DHT22;71844;51.528;4.442;2023-09-12T12:59:01;32.80;42.50
82243;DHT22;71844;51.528;4.442;2023-09-12T13:01:34;32.60;42.70
82243;DHT22;71844;51.528;4.442;2023-09-12T13:04:04;32.60;43.10
82243;DHT22;71844;51.528;4.442;2023-09-12T13:06:31;32.80;43.20
82243;DHT22;71844;51.528;4.442;2023-09-12T13:09:04;33.20;42.90
82243;DHT22;71844;51.528;4.442;2023-09-12T13:11:32;33.60;42.40
82243;DHT22;71844;51.528;4.442;2023-09-12T13:14:04;33.80;42.10
82243;DHT22;71844;51.528;4.442;2023-09-12T13:16:37;34.10;41.90
82243;DHT22;71844;51.528;4.442;2023-09-12T13:19:07;34.40;41.60
82243;DHT22;71844;51.528;4.442;2023-09-12T13:21:34;34.60;41.30
82243;DHT22;71844;51.528;4.442;2023-09-12T13:24:02;34.70;41.10
82243;DHT22;71844;51.528;4.442;2023-09-12T13:26:29;34.90;40.90
82243;DHT22;71844;51.528;4.442;2023-09-12T13:28:56;34.80;40.70
82243;DHT22;71844;51.528;4.442;2023-09-12T13:31:24;34.60;40.70
82243;DHT22;71844;51.528;4.442;2023-09-12T13:33:52;34.10;41.00
82243;DHT22;71844;51.528;4.442;2023-09-12T13:36:19;33.50;41.60
82243;DHT22;71844;51.528;4.442;2023-09-12T13:38:45;33.00;42.00
82243;DHT22;71844;51.528;4.442;2023-09-12T13:41:15;32.50;42.70
82243;DHT22;71844;51.528;4.442;2023-09-12T13:43:42;32.20;43.30
82243;DHT22;71844;51.528;4.442;2023-09-12T13:46:14;32.20;43.60
82243;DHT22;71844;51.528;4.442;2023-09-12T13:48:43;32.30;43.50
82243;DHT22;71844;51.528;4.442;2023-09-12T13:51:11;32.40;43.30
82243;DHT22;71844;51.528;4.442;2023-09-12T13:53:39;32.50;43.30
82243;DHT22;71844;51.528;4.442;2023-09-12T13:56:07;32.70;43.30
82243;DHT22;71844;51.528;4.442;2023-09-12T13:58:54;33.00;43.10
82243;DHT22;71844;51.528;4.442;2023-09-12T14:01:22;33.30;42.50
82243;DHT22;71844;51.528;4.442;2023-09-12T14:04:01;33.50;42.40
82243;DHT22;71844;51.528;4.442;2023-09-12T14:06:29;33.60;42.30
82243;DHT22;71844;51.528;4.442;2023-09-12T14:08:57;33.80;42.00
82243;DHT22;71844;51.528;4.442;2023-09-12T14:11:25;33.90;41.80
82243;DHT22;71844;51.528;4.442;2023-09-12T14:14:02;34.00;41.40
82243;DHT22;71844;51.528;4.442;2023-09-12T14:16:42;34.00;41.20
82243;DHT22;71844;51.528;4.442;2023-09-12T14:22:01;33.40;41.90
82243;DHT22;71844;51.528;4.442;2023-09-12T14:24:29;32.90;42.30
82243;DHT22;71844;51.528;4.442;2023-09-12T14:26:58;32.60;43.00
82243;DHT22;71844;51.528;4.442;2023-09-12T14:29:26;32.50;43.10
82243;DHT22;71844;51.528;4.442;2023-09-12T14:31:56;32.40;43.30
82243;DHT22;71844;51.528;4.442;2023-09-12T14:34:26;32.20;43.50
82243;DHT22;71844;51.528;4.442;2023-09-12T14:36:55;32.00;43.80
82243;DHT22;71844;51.528;4.442;2023-09-12T14:39:23;31.80;44.00
82243;DHT22;71844;51.528;4.442;2023-09-12T14:41:50;31.50;44.50
82243;DHT22;71844;51.528;4.442;2023-09-12T14:44:18;31.30;44.80
82243;DHT22;71844;51.528;4.442;2023-09-12T14:46:45;31.20;44.90
82243;DHT22;71844;51.528;4.442;2023-09-12T14:49:13;31.20;44.90
82243;DHT22;71844;51.528;4.442;2023-09-12T14:51:40;31.20;44.90
82243;DHT22;71844;51.528;4.442;2023-09-12T14:54:07;31.30;44.90
82243;DHT22;71844;51.528;4.442;2023-09-12T14:56:34;31.20;44.80
82243;DHT22;71844;51.528;4.442;2023-09-12T14:59:04;31.00;45.20
82243;DHT22;71844;51.528;4.442;2023-09-12T15:01:31;30.90;45.50
82243;DHT22;71844;51.528;4.442;2023-09-12T15:03:58;30.90;45.40
82243;DHT22;71844;51.528;4.442;2023-09-12T15:06:25;30.80;45.50
82243;DHT22;71844;51.528;4.442;2023-09-12T15:08:52;30.70;45.60
82243;DHT22;71844;51.528;4.442;2023-09-12T15:11:19;30.60;45.90
82243;DHT22;71844;51.528;4.442;2023-09-12T15:13:46;30.30;46.10
82243;DHT22;71844;51.528;4.442;2023-09-12T15:16:14;30.10;46.50
82243;DHT22;71844;51.528;4.442;2023-09-12T15:18:41;29.80;47.00
82243;DHT22;71844;51.528;4.442;2023-09-12T15:21:09;29.60;47.50
82243;DHT22;71844;51.528;4.442;2023-09-12T15:23:36;29.40;47.90
82243;DHT22;71844;51.528;4.442;2023-09-12T15:26:03;29.10;48.40
82243;DHT22;71844;51.528;4.442;2023-09-12T15:28:29;29.00;48.70
82243;DHT22;71844;51.528;4.442;2023-09-12T15:30:59;29.00;49.10
82243;DHT22;71844;51.528;4.442;2023-09-12T15:33:30;28.90;49.40
82243;DHT22;71844;51.528;4.442;2023-09-12T15:35:57;28.80;49.50
82243;DHT22;71844;51.528;4.442;2023-09-12T15:38:23;28.70;49.90
82243;DHT22;71844;51.528;4.442;2023-09-12T15:40:51;28.50;50.30
82243;DHT22;71844;51.528;4.442;2023-09-12T15:43:18;28.40;50.60
82243;DHT22;71844;51.528;4.442;2023-09-12T15:45:51;28.40;50.90
82243;DHT22;71844;51.528;4.442;2023-09-12T15:48:18;28.30;51.10
82243;DHT22;71844;51.528;4.442;2023-09-12T15:50:45;28.30;51.30